createdAt,value
2018-10-05T00:01:32.238Z,6.47
2018-10-05T00:03:59.870Z,6.20
2018-10-05T00:06:27.510Z,4.73
2018-10-05T00:08:55.195Z,5.10
2018-10-05T00:11:22.831Z,5.13
2018-10-05T00:13:50.357Z,7.30
2018-10-05T00:16:17.867Z,5.80
2018-10-05T00:18:45.392Z,6.17
2018-10-05T00:21:13.012Z,5.47
2018-10-05T00:23:40.553Z,11.00
2018-10-05T00:26:08.209Z,4.67
2018-10-05T00:28:35.729Z,6.57
2018-10-05T00:31:03.406Z,5.17
2018-10-05T00:33:30.942Z,3.67
2018-10-05T00:35:58.538Z,5.47
2018-10-05T00:38:26.171Z,2.57
2018-10-05T00:40:54.862Z,3.30
2018-10-05T00:43:22.398Z,3.70
2018-10-05T00:45:50.038Z,5.13
2018-10-05T00:48:17.564Z,3.13
2018-10-05T00:50:45.251Z,4.47
2018-10-05T00:53:12.862Z,1.97
2018-10-05T00:55:40.430Z,1.83
2018-10-05T00:58:08.047Z,3.47
2018-10-05T01:00:35.582Z,2.30
2018-10-05T01:03:03.182Z,2.43
2018-10-05T01:05:30.702Z,4.30
2018-10-05T01:07:58.268Z,2.47
2018-10-05T01:10:25.990Z,3.80
2018-10-05T01:12:53.578Z,3.70
2018-10-05T01:15:21.126Z,2.70
2018-10-05T01:17:48.758Z,3.60
2018-10-05T01:20:16.377Z,2.70
2018-10-05T01:22:44.003Z,2.50
2018-10-05T01:25:11.497Z,3.67
2018-10-05T01:27:39.041Z,3.70
2018-10-05T01:30:10.258Z,2.07
2018-10-05T01:32:38.298Z,4.50
2018-10-05T01:35:05.869Z,3.70
2018-10-05T01:37:33.422Z,2.40
2018-10-05T01:40:01.122Z,2.43
2018-10-05T01:42:28.739Z,3.57
2018-10-05T01:44:56.270Z,2.60
2018-10-05T01:47:23.890Z,2.93
2018-10-05T01:49:52.439Z,2.63
2018-10-05T01:52:19.975Z,2.50
2018-10-05T01:54:47.492Z,4.33
2018-10-05T01:57:15.135Z,2.80
2018-10-05T01:59:42.747Z,3.97
2018-10-05T02:02:10.289Z,2.67
2018-10-05T02:04:37.817Z,3.00
2018-10-05T02:07:05.451Z,2.50
2018-10-05T02:09:33.074Z,3.43
2018-10-05T02:12:00.597Z,3.37
2018-10-05T02:14:28.146Z,3.17
2018-10-05T02:16:55.677Z,2.43
2018-10-05T02:19:23.278Z,2.40
2018-10-05T02:21:50.904Z,2.07
2018-10-05T02:24:18.425Z,3.30
2018-10-05T02:26:45.960Z,2.63
2018-10-05T02:29:13.568Z,3.60
2018-10-05T02:31:41.150Z,2.63
2018-10-05T02:34:08.687Z,2.60
2018-10-05T02:36:36.302Z,3.17
2018-10-05T02:39:06.591Z,1.97
2018-10-05T02:41:34.368Z,2.67
2018-10-05T02:44:02.032Z,2.70
2018-10-05T02:46:29.678Z,2.50
2018-10-05T02:48:57.206Z,3.30
2018-10-05T02:51:24.782Z,3.77
2018-10-05T02:53:52.342Z,3.90
2018-10-05T02:56:19.977Z,4.57
2018-10-05T02:58:47.669Z,5.03
2018-10-05T03:01:20.704Z,3.47
2018-10-05T03:03:48.312Z,3.23
2018-10-05T03:06:15.918Z,3.23
2018-10-05T03:08:43.449Z,2.63
2018-10-05T03:11:11.035Z,4.10
2018-10-05T03:13:38.554Z,3.87
2018-10-05T03:16:06.298Z,3.73
2018-10-05T03:18:33.949Z,5.00
2018-10-05T03:21:01.734Z,3.63
2018-10-05T03:23:29.324Z,5.00
2018-10-05T03:25:56.954Z,3.13
2018-10-05T03:28:24.614Z,3.77
2018-10-05T03:30:52.149Z,2.40
2018-10-05T03:33:19.693Z,3.10
2018-10-05T03:35:47.317Z,2.80
2018-10-05T03:38:14.925Z,5.20
2018-10-05T03:40:42.510Z,3.70
2018-10-05T03:43:10.179Z,4.07
2018-10-05T03:45:37.700Z,3.20
2018-10-05T03:48:05.559Z,3.33
2018-10-05T03:50:33.090Z,3.57
2018-10-05T03:53:00.734Z,2.90
2018-10-05T03:55:28.253Z,3.83
2018-10-05T03:57:55.867Z,4.10
2018-10-05T04:00:23.473Z,2.93
2018-10-05T04:02:51.054Z,3.07
2018-10-05T04:05:18.562Z,4.43
2018-10-05T04:07:46.094Z,4.13
2018-10-05T04:10:13.715Z,4.87
2018-10-05T04:12:41.327Z,3.17
2018-10-05T04:15:09.079Z,5.57
2018-10-05T04:17:36.583Z,4.17
2018-10-05T04:20:04.354Z,3.63
2018-10-05T04:22:32.003Z,5.10
2018-10-05T04:24:59.682Z,4.43
2018-10-05T04:27:27.318Z,3.60
2018-10-05T04:29:55.447Z,4.30
2018-10-05T04:32:23.159Z,3.13
2018-10-05T04:34:50.790Z,4.57
2018-10-05T04:37:18.446Z,3.93
2018-10-05T04:39:45.973Z,3.80
2018-10-05T04:42:13.501Z,4.33
2018-10-05T04:44:41.143Z,3.17
2018-10-05T04:47:08.826Z,3.30
2018-10-05T04:49:36.530Z,4.40
2018-10-05T04:52:03.976Z,3.53
2018-10-05T04:54:31.859Z,2.90
2018-10-05T04:56:59.509Z,3.70
2018-10-05T04:59:27.132Z,3.77
2018-10-05T05:01:54.738Z,4.00
2018-10-05T05:04:22.368Z,7.10
2018-10-05T05:06:50.011Z,4.77
2018-10-05T05:09:17.649Z,4.73
2018-10-05T05:11:45.333Z,4.53
2018-10-05T05:14:12.861Z,4.83
2018-10-05T05:16:40.389Z,3.63
2018-10-05T05:19:07.917Z,3.90
2018-10-05T05:21:35.456Z,3.30
2018-10-05T05:24:03.105Z,3.47
2018-10-05T05:26:30.634Z,4.90
2018-10-05T05:28:58.210Z,6.00
2018-10-05T05:31:25.745Z,7.37
2018-10-05T05:33:53.487Z,7.50
2018-10-05T05:36:21.043Z,7.00
2018-10-05T05:38:48.570Z,5.77
2018-10-05T05:41:16.093Z,5.90
2018-10-05T05:43:43.715Z,5.93
2018-10-05T05:46:11.258Z,5.47
2018-10-05T05:48:38.777Z,5.13
2018-10-05T05:51:06.429Z,4.70
2018-10-05T05:53:34.183Z,3.97
2018-10-05T05:56:01.923Z,4.80
2018-10-05T05:58:29.494Z,4.50
2018-10-05T06:00:57.145Z,5.43
2018-10-05T06:03:24.730Z,7.17
2018-10-05T06:05:52.375Z,4.33
2018-10-05T06:08:19.944Z,4.87
2018-10-05T06:10:47.599Z,4.83
2018-10-05T06:13:15.720Z,5.13
2018-10-05T06:15:43.411Z,5.73
2018-10-05T06:18:10.931Z,5.97
2018-10-05T06:20:38.450Z,5.83
2018-10-05T06:23:06.022Z,5.83
2018-10-05T06:25:33.635Z,6.50
2018-10-05T06:28:01.246Z,5.53
2018-10-05T06:30:28.784Z,4.37
2018-10-05T06:32:56.417Z,4.87
2018-10-05T06:35:23.930Z,6.03
2018-10-05T06:37:51.476Z,10.53
2018-10-05T06:40:18.973Z,6.97
2018-10-05T06:42:46.598Z,6.90
2018-10-05T06:45:14.238Z,7.90
2018-10-05T06:47:41.870Z,8.63
2018-10-05T06:50:09.498Z,8.13
2018-10-05T06:52:37.018Z,7.40
2018-10-05T06:55:04.654Z,6.33
2018-10-05T06:57:32.286Z,6.30
2018-10-05T06:59:59.902Z,8.30
2018-10-05T07:02:27.902Z,8.30
2018-10-05T07:04:55.522Z,8.00
2018-10-05T07:07:23.155Z,7.43
2018-10-05T07:09:50.795Z,7.73
2018-10-05T07:12:18.395Z,8.50
2018-10-05T07:14:46.017Z,7.90
2018-10-05T07:17:13.563Z,7.20
2018-10-05T07:19:41.089Z,7.37
2018-10-05T07:22:08.734Z,6.63
2018-10-05T07:24:36.246Z,6.27
2018-10-05T07:27:03.786Z,6.63
2018-10-05T07:29:31.358Z,6.40
2018-10-05T07:31:58.870Z,6.53
2018-10-05T07:34:26.516Z,6.10
2018-10-05T07:36:54.078Z,6.17
2018-10-05T07:39:21.598Z,5.63
2018-10-05T07:41:49.118Z,4.97
2018-10-05T07:44:16.722Z,7.63
2018-10-05T07:46:44.333Z,6.73
2018-10-05T07:49:11.881Z,5.97
2018-10-05T07:51:39.577Z,6.43
2018-10-05T07:54:07.194Z,5.30
2018-10-05T07:56:34.765Z,6.57
2018-10-05T07:59:02.267Z,9.43
2018-10-05T08:01:29.813Z,6.53
2018-10-05T08:03:57.463Z,7.57
2018-10-05T08:06:25.046Z,4.90
2018-10-05T08:08:53.013Z,5.80
2018-10-05T08:11:20.642Z,5.77
2018-10-05T08:13:48.174Z,7.50
2018-10-05T08:16:15.813Z,8.37
2018-10-05T08:18:43.418Z,6.47
2018-10-05T08:21:11.089Z,6.13
2018-10-05T08:23:38.569Z,6.50
2018-10-05T08:26:06.373Z,6.90
2018-10-05T08:28:33.898Z,4.93
2018-10-05T08:31:01.425Z,5.50
2018-10-05T08:33:28.946Z,6.50
2018-10-05T08:35:56.587Z,5.53
2018-10-05T08:38:24.254Z,4.97
2018-10-05T08:40:52.125Z,7.10
2018-10-05T08:43:19.803Z,4.70
2018-10-05T08:45:47.496Z,5.60
2018-10-05T08:48:15.103Z,5.57
2018-10-05T08:50:42.722Z,4.80
2018-10-05T08:53:10.376Z,4.90
2018-10-05T08:55:38.162Z,6.93
2018-10-05T08:58:05.851Z,5.23
2018-10-05T09:00:33.399Z,6.77
2018-10-05T09:03:01.030Z,5.70
2018-10-05T09:05:28.558Z,6.17
2018-10-05T09:07:56.061Z,5.27
2018-10-05T09:10:23.588Z,4.97
2018-10-05T09:12:51.105Z,6.87
2018-10-05T09:15:18.739Z,4.73
2018-10-05T09:17:46.429Z,5.07
2018-10-05T09:20:13.962Z,4.77
2018-10-05T09:22:41.481Z,5.37
2018-10-05T09:25:09.008Z,5.87
2018-10-05T09:27:36.606Z,5.03
2018-10-05T09:30:04.114Z,6.47
2018-10-05T09:32:31.629Z,5.20
2018-10-05T09:34:59.163Z,5.70
2018-10-05T09:37:26.841Z,4.70
2018-10-05T09:39:54.403Z,3.90
2018-10-05T09:42:22.026Z,5.10
2018-10-05T09:44:49.661Z,4.70
2018-10-05T09:47:17.295Z,5.33
2018-10-05T09:49:44.923Z,4.70
2018-10-05T09:52:12.632Z,4.93
2018-10-05T09:54:40.194Z,4.67
2018-10-05T09:57:07.786Z,4.33
2018-10-05T09:59:35.330Z,5.13
2018-10-05T10:02:08.530Z,4.47
2018-10-05T10:04:36.202Z,4.27
2018-10-05T10:07:03.838Z,4.13
2018-10-05T10:09:31.411Z,4.90
2018-10-05T10:11:59.039Z,11.17
2018-10-05T10:14:26.682Z,5.90
2018-10-05T10:16:54.202Z,7.43
2018-10-05T10:19:21.837Z,7.03
2018-10-05T10:21:49.528Z,5.50
2018-10-05T10:24:17.167Z,4.27
2018-10-05T10:26:44.749Z,4.70
2018-10-05T10:29:12.470Z,4.07
2018-10-05T10:31:39.986Z,5.30
2018-10-05T10:34:07.646Z,5.60
2018-10-05T10:36:35.283Z,4.60
2018-10-05T10:39:04.053Z,3.70
2018-10-05T10:41:31.666Z,3.53
2018-10-05T10:43:59.181Z,5.12
2018-10-05T10:46:26.685Z,4.58
2018-10-05T10:48:54.194Z,5.07
2018-10-05T10:51:28.363Z,5.63
2018-10-05T10:53:55.876Z,3.70
2018-10-05T10:56:23.873Z,4.87
2018-10-05T10:58:51.473Z,3.10
2018-10-05T11:01:19.037Z,3.60
2018-10-05T11:03:46.682Z,6.27
2018-10-05T11:06:14.264Z,3.30
2018-10-05T11:08:41.818Z,2.93
2018-10-05T11:11:09.486Z,4.37
2018-10-05T11:13:36.981Z,4.07
2018-10-05T11:16:04.622Z,4.30
2018-10-05T11:18:32.157Z,3.27
2018-10-05T11:20:59.685Z,3.33
2018-10-05T11:23:27.454Z,4.53
2018-10-05T11:25:54.974Z,3.73
2018-10-05T11:28:22.609Z,3.53
2018-10-05T11:30:50.125Z,3.67
2018-10-05T11:33:17.750Z,4.22
2018-10-05T11:35:45.434Z,3.10
2018-10-05T11:38:13.798Z,3.40
2018-10-05T11:40:41.413Z,3.73
2018-10-05T11:43:08.998Z,2.97
2018-10-05T11:45:36.550Z,3.30
2018-10-05T11:48:04.108Z,2.77
2018-10-05T11:50:31.775Z,3.02
2018-10-05T11:52:59.334Z,2.70
2018-10-05T11:55:26.998Z,2.60
2018-10-05T11:57:54.598Z,3.17
2018-10-05T12:00:22.142Z,2.97
2018-10-05T12:02:49.701Z,4.23
2018-10-05T12:05:17.400Z,4.10
2018-10-05T12:07:44.974Z,8.93
2018-10-05T12:10:12.826Z,4.90
2018-10-05T12:12:40.344Z,4.33
2018-10-05T12:15:08.070Z,3.70
2018-10-05T12:17:35.683Z,8.00
2018-10-05T12:20:03.333Z,3.40
2018-10-05T12:22:31.015Z,4.63
2018-10-05T12:24:58.686Z,4.03
2018-10-05T12:27:26.607Z,3.13
2018-10-05T12:29:54.218Z,4.20
2018-10-05T12:32:21.786Z,3.10
2018-10-05T12:34:49.374Z,2.70
2018-10-05T12:37:16.982Z,2.87
2018-10-05T12:39:44.781Z,3.37
2018-10-05T12:42:12.590Z,3.53
2018-10-05T12:44:40.344Z,4.00
2018-10-05T12:47:07.882Z,3.73
2018-10-05T12:49:35.412Z,2.50
2018-10-05T12:52:02.930Z,3.03
2018-10-05T12:54:30.446Z,4.40
2018-10-05T12:56:57.962Z,3.20
2018-10-05T12:59:25.507Z,2.93
2018-10-05T13:01:53.078Z,2.63
2018-10-05T13:04:20.621Z,3.90
2018-10-05T13:06:48.272Z,3.23
2018-10-05T13:09:15.808Z,2.37
2018-10-05T13:11:43.322Z,2.50
2018-10-05T13:14:10.881Z,7.67
2018-10-05T13:16:38.494Z,2.37
2018-10-05T13:19:06.018Z,2.47
2018-10-05T13:21:33.869Z,2.70
2018-10-05T13:24:01.830Z,3.97
2018-10-05T13:26:29.386Z,4.37
2018-10-05T13:28:56.915Z,9.03
2018-10-05T13:31:24.547Z,14.97
2018-10-05T13:33:52.082Z,8.60
2018-10-05T13:36:19.649Z,8.27
2018-10-05T13:38:47.213Z,5.33
2018-10-05T13:41:14.755Z,5.57
2018-10-05T13:43:42.360Z,3.50
2018-10-05T13:46:09.878Z,4.03
2018-10-05T13:48:37.382Z,3.27
2018-10-05T13:51:05.055Z,3.23
2018-10-05T13:53:32.674Z,2.77
2018-10-05T13:56:00.245Z,3.13
2018-10-05T13:58:27.863Z,3.07
2018-10-05T14:00:55.468Z,2.97
2018-10-05T14:03:23.810Z,2.47
2018-10-05T14:05:51.329Z,11.10
2018-10-05T14:08:18.874Z,4.07
2018-10-05T14:10:46.499Z,3.70
2018-10-05T14:13:14.053Z,2.57
2018-10-05T14:15:41.570Z,2.67
2018-10-05T14:18:09.230Z,2.73
2018-10-05T14:20:36.805Z,3.03
2018-10-05T14:23:04.305Z,4.00
2018-10-05T14:25:31.857Z,2.40
2018-10-05T14:27:59.458Z,3.03
2018-10-05T14:30:27.025Z,5.87
2018-10-05T14:32:54.663Z,4.33
2018-10-05T14:35:22.330Z,3.77
2018-10-05T14:37:49.951Z,2.60
2018-10-05T14:40:17.490Z,3.00
2018-10-05T14:42:45.029Z,3.30
2018-10-05T14:45:12.713Z,3.30
2018-10-05T14:47:40.250Z,2.30
2018-10-05T14:50:07.822Z,3.40
2018-10-05T14:52:35.473Z,2.17
2018-10-05T14:55:03.040Z,2.73
2018-10-05T14:57:30.602Z,2.50
2018-10-05T14:59:58.175Z,3.80
2018-10-05T15:02:25.710Z,2.70
2018-10-05T15:04:53.243Z,2.30
2018-10-05T15:07:20.774Z,2.80
2018-10-05T15:09:48.469Z,3.00
2018-10-05T15:12:16.018Z,2.70
2018-10-05T15:14:43.679Z,2.50
2018-10-05T15:17:11.319Z,3.13
2018-10-05T15:19:38.882Z,2.97
2018-10-05T15:22:06.437Z,2.70
2018-10-05T15:24:33.973Z,2.70
2018-10-05T15:27:01.528Z,2.57
2018-10-05T15:29:29.355Z,2.63
2018-10-05T15:31:57.142Z,4.00
2018-10-05T15:34:24.702Z,2.90
2018-10-05T15:36:52.398Z,3.37
2018-10-05T15:39:20.044Z,2.30
2018-10-05T15:41:47.599Z,2.97
2018-10-05T15:44:15.131Z,3.53
2018-10-05T15:46:55.522Z,2.23
2018-10-05T15:49:23.046Z,2.00
2018-10-05T15:51:50.790Z,2.83
2018-10-05T15:54:18.441Z,2.77
2018-10-05T15:56:46.076Z,4.83
2018-10-05T15:59:13.903Z,3.33
2018-10-05T16:01:41.538Z,2.30
2018-10-05T16:04:09.376Z,2.80
2018-10-05T16:06:37.073Z,2.33
2018-10-05T16:09:05.534Z,2.37
2018-10-05T16:11:33.086Z,2.43
2018-10-05T16:14:00.698Z,2.23
2018-10-05T16:16:28.346Z,3.07
2018-10-05T16:18:55.990Z,3.33
2018-10-05T16:21:23.602Z,2.37
2018-10-05T16:23:52.556Z,3.60
2018-10-05T16:26:20.106Z,2.40
2018-10-05T16:28:47.738Z,2.57
2018-10-05T16:31:15.437Z,5.30
2018-10-05T16:33:43.194Z,3.67
2018-10-05T16:36:10.714Z,2.57
2018-10-05T16:38:38.362Z,3.33
2018-10-05T16:41:05.906Z,3.73
2018-10-05T16:43:33.480Z,3.97
2018-10-05T16:46:01.111Z,4.73
2018-10-05T16:48:28.659Z,6.17
2018-10-05T16:50:56.285Z,3.13
2018-10-05T16:53:23.830Z,3.20
2018-10-05T16:55:51.374Z,2.53
2018-10-05T16:58:18.978Z,2.23
2018-10-05T17:00:46.610Z,2.63
2018-10-05T17:03:14.129Z,2.47
2018-10-05T17:05:41.857Z,1.90
2018-10-05T17:08:09.563Z,3.60
2018-10-05T17:10:37.227Z,3.07
2018-10-05T17:13:04.858Z,3.60
2018-10-05T17:15:32.418Z,5.13
2018-10-05T17:18:00.037Z,3.47
2018-10-05T17:20:27.797Z,3.60
2018-10-05T17:22:55.416Z,2.47
2018-10-05T17:25:22.951Z,10.23
2018-10-05T17:27:50.570Z,4.40
2018-10-05T17:30:18.078Z,3.37
2018-10-05T17:32:45.709Z,5.87
2018-10-05T17:35:13.292Z,3.07
2018-10-05T17:37:40.878Z,3.07
2018-10-05T17:40:08.640Z,4.07
2018-10-05T17:42:36.357Z,4.10
2018-10-05T17:45:03.929Z,3.17
2018-10-05T17:47:31.558Z,3.40
2018-10-05T17:49:59.069Z,2.90
2018-10-05T17:52:26.585Z,3.23
2018-10-05T17:54:54.227Z,3.73
2018-10-05T17:57:21.854Z,2.70
2018-10-05T17:59:49.381Z,3.67
2018-10-05T18:02:16.922Z,3.93
2018-10-05T18:04:44.562Z,2.73
2018-10-05T18:07:12.094Z,3.67
2018-10-05T18:09:39.702Z,4.67
2018-10-05T18:12:07.614Z,4.50
2018-10-05T18:14:35.259Z,5.23
2018-10-05T18:17:02.781Z,5.57
2018-10-05T18:19:30.306Z,4.77
2018-10-05T18:21:57.919Z,4.27
2018-10-05T18:24:25.447Z,4.00
2018-10-05T18:26:53.006Z,3.87
2018-10-05T18:29:20.732Z,3.23
2018-10-05T18:31:48.418Z,3.03
2018-10-05T18:34:15.941Z,2.57
2018-10-05T18:36:43.623Z,2.83
2018-10-05T18:39:11.146Z,2.33
2018-10-05T18:41:38.801Z,2.27
2018-10-05T18:44:06.415Z,2.50
2018-10-05T18:46:33.877Z,2.77
2018-10-05T18:49:01.670Z,3.77
2018-10-05T18:51:29.221Z,2.40
2018-10-05T18:53:56.754Z,3.03
2018-10-05T18:56:29.873Z,3.13
2018-10-05T18:58:57.406Z,3.10
2018-10-05T19:01:25.070Z,3.80
2018-10-05T19:03:52.630Z,5.90
2018-10-05T19:06:20.282Z,3.03
2018-10-05T19:08:47.809Z,4.33
2018-10-05T19:11:15.353Z,2.97
2018-10-05T19:13:42.952Z,4.33
2018-10-05T19:16:10.498Z,3.17
2018-10-05T19:18:38.126Z,2.70
2018-10-05T19:21:05.702Z,2.50
2018-10-05T19:23:33.242Z,2.80
2018-10-05T19:26:01.000Z,2.00
2018-10-05T19:28:28.548Z,4.33
2018-10-05T19:30:56.083Z,3.07
2018-10-05T19:33:23.622Z,2.33
2018-10-05T19:35:51.406Z,3.23
2018-10-05T19:38:18.965Z,2.73
2018-10-05T19:40:46.582Z,2.80
2018-10-05T19:43:14.106Z,2.30
2018-10-05T19:45:41.710Z,3.23
2018-10-05T19:48:09.224Z,6.50
2018-10-05T19:50:36.926Z,2.13
2018-10-05T19:53:04.534Z,2.57
2018-10-05T19:55:32.253Z,3.13
2018-10-05T19:57:59.813Z,2.87
2018-10-05T20:00:27.359Z,3.07
2018-10-05T20:02:55.251Z,2.70
2018-10-05T20:05:23.422Z,3.73
2018-10-05T20:07:51.048Z,2.60
2018-10-05T20:10:18.692Z,2.40
2018-10-05T20:12:46.210Z,2.50
2018-10-05T20:15:13.880Z,2.70
2018-10-05T20:17:41.461Z,2.60
2018-10-05T20:20:08.954Z,2.60
2018-10-05T20:22:36.486Z,2.77
2018-10-05T20:25:04.023Z,2.20
2018-10-05T20:27:31.629Z,2.60
2018-10-05T20:29:59.274Z,2.97
2018-10-05T20:32:26.871Z,3.23
2018-10-05T20:34:54.406Z,3.00
2018-10-05T20:37:22.244Z,4.33
2018-10-05T20:39:49.654Z,2.90
2018-10-05T20:42:17.198Z,2.90
2018-10-05T20:44:44.823Z,2.37
2018-10-05T20:47:12.460Z,2.53
2018-10-05T20:49:39.990Z,2.73
2018-10-05T20:52:07.507Z,3.00
2018-10-05T20:54:35.034Z,2.77
2018-10-05T20:57:02.564Z,3.20
2018-10-05T20:59:30.207Z,2.47
2018-10-05T21:01:57.721Z,5.00
2018-10-05T21:04:25.500Z,2.67
2018-10-05T21:06:53.097Z,4.90
2018-10-05T21:09:20.659Z,3.97
2018-10-05T21:11:48.279Z,3.03
2018-10-05T21:14:15.806Z,3.17
2018-10-05T21:16:43.322Z,2.53
2018-10-05T21:19:10.850Z,3.47
2018-10-05T21:21:38.468Z,2.87
2018-10-05T21:24:05.974Z,3.20
2018-10-05T21:26:33.505Z,2.40
2018-10-05T21:29:01.123Z,2.73
2018-10-05T21:31:28.682Z,3.00
2018-10-05T21:33:56.208Z,2.80
2018-10-05T21:36:23.824Z,2.90
2018-10-05T21:38:51.429Z,3.90
2018-10-05T21:41:19.055Z,2.60
2018-10-05T21:43:46.581Z,2.30
2018-10-05T21:46:14.110Z,3.00
2018-10-05T21:48:41.635Z,2.50
2018-10-05T21:51:09.263Z,2.77
2018-10-05T21:53:36.801Z,2.60
2018-10-05T21:56:04.435Z,2.67
2018-10-05T21:58:31.951Z,2.50
2018-10-05T22:00:59.590Z,2.77
2018-10-05T22:03:29.594Z,2.57
2018-10-05T22:05:57.252Z,1.90
2018-10-05T22:08:24.868Z,2.50
2018-10-05T22:10:52.497Z,2.50
2018-10-05T22:13:20.047Z,2.27
2018-10-05T22:15:47.710Z,2.50
2018-10-05T22:18:15.253Z,2.67
2018-10-05T22:20:42.797Z,2.67
2018-10-05T22:23:10.451Z,3.20
2018-10-05T22:25:37.978Z,2.30
2018-10-05T22:28:05.506Z,2.90
2018-10-05T22:30:33.140Z,2.03
2018-10-05T22:33:00.754Z,2.30
2018-10-05T22:35:28.543Z,2.20
2018-10-05T22:37:56.594Z,4.57
2018-10-05T22:40:24.256Z,2.40
2018-10-05T22:42:51.887Z,2.97
2018-10-05T22:45:19.518Z,2.90
2018-10-05T22:47:47.065Z,2.63
2018-10-05T22:50:14.682Z,2.77
2018-10-05T22:52:42.391Z,2.17
2018-10-05T22:55:09.919Z,3.43
2018-10-05T22:57:37.543Z,2.23
2018-10-05T23:00:05.277Z,2.77
2018-10-05T23:02:32.890Z,6.27
2018-10-05T23:05:00.643Z,3.10
2018-10-05T23:07:28.305Z,3.10
2018-10-05T23:09:55.834Z,2.40
2018-10-05T23:12:23.439Z,4.07
2018-10-05T23:14:51.313Z,3.77
2018-10-05T23:17:19.005Z,5.70
2018-10-05T23:19:46.569Z,2.63
2018-10-05T23:22:14.174Z,3.07
2018-10-05T23:24:41.788Z,3.27
2018-10-05T23:27:09.390Z,4.53
2018-10-05T23:29:36.898Z,2.53
2018-10-05T23:32:04.544Z,3.47
2018-10-05T23:34:32.142Z,2.90
2018-10-05T23:36:59.782Z,4.50
2018-10-05T23:39:27.294Z,3.33
2018-10-05T23:41:54.821Z,2.70
2018-10-05T23:44:22.427Z,2.43
2018-10-05T23:46:50.073Z,3.00
2018-10-05T23:49:17.674Z,2.57
2018-10-05T23:51:45.197Z,2.40
2018-10-05T23:54:12.727Z,2.57
2018-10-05T23:56:40.363Z,2.40
2018-10-05T23:59:08.026Z,2.87
